createdAt,value
2022-10-25T00:02:42.521Z,10.60
2022-10-25T00:05:44.691Z,8.98
2022-10-25T00:08:46.823Z,9.93
2022-10-25T00:11:48.898Z,10.02
2022-10-25T00:14:50.982Z,9.07
2022-10-25T00:17:53.187Z,11.23
2022-10-25T00:20:55.451Z,9.05
2022-10-25T00:23:57.479Z,9.63
2022-10-25T00:27:00.565Z,8.73
2022-10-25T00:30:04.462Z,8.73
2022-10-25T00:33:06.461Z,9.45
2022-10-25T00:36:11.637Z,10.13
2022-10-25T00:39:15.166Z,10.05
2022-10-25T00:42:23.492Z,8.73
2022-10-25T00:45:27.808Z,9.23
2022-10-25T00:48:30.319Z,8.18
2022-10-25T00:51:37.066Z,9.10
2022-10-25T00:54:46.462Z,8.95
2022-10-25T00:58:04.101Z,10.43
2022-10-25T01:01:09.048Z,9.50
2022-10-25T01:04:15.133Z,8.60
2022-10-25T01:07:17.187Z,7.88
2022-10-25T01:10:19.490Z,8.65
2022-10-25T01:13:21.694Z,8.90
2022-10-25T01:16:36.136Z,9.20
2022-10-25T01:20:11.967Z,9.63
2022-10-25T01:23:44.791Z,8.05
2022-10-25T01:27:18.600Z,8.88
2022-10-25T01:30:24.219Z,9.38
2022-10-25T01:33:31.130Z,8.82
2022-10-25T01:37:00.434Z,9.80
2022-10-25T01:40:23.675Z,8.60
2022-10-25T01:43:25.629Z,9.27
2022-10-25T01:46:44.416Z,8.75
2022-10-25T01:50:01.369Z,9.10
2022-10-25T01:53:03.369Z,9.25
2022-10-25T01:56:06.302Z,8.80
2022-10-25T01:59:30.265Z,9.60
2022-10-25T02:03:09.517Z,10.00
2022-10-25T02:06:36.053Z,9.52
2022-10-25T02:09:52.383Z,8.77
2022-10-25T02:13:27.146Z,8.98
2022-10-25T02:16:36.323Z,9.57
2022-10-25T02:19:45.780Z,9.48
2022-10-25T02:22:50.011Z,10.00
2022-10-25T02:25:53.601Z,9.18
2022-10-25T02:28:57.105Z,8.80
2022-10-25T02:31:59.674Z,8.45
2022-10-25T02:35:02.134Z,10.52
2022-10-25T02:38:04.547Z,10.10
2022-10-25T02:41:06.576Z,10.00
2022-10-25T02:44:08.710Z,8.90
2022-10-25T02:47:10.761Z,11.32
2022-10-25T02:50:12.917Z,10.30
2022-10-25T02:53:14.970Z,9.40
2022-10-25T02:56:20.624Z,9.63
2022-10-25T02:59:22.800Z,9.63
2022-10-25T03:02:24.844Z,10.55
2022-10-25T03:05:26.882Z,9.95
2022-10-25T03:11:35.890Z,10.65
2022-10-25T03:14:37.969Z,10.48
2022-10-25T03:17:40.079Z,9.65
2022-10-25T03:20:43.175Z,9.52
2022-10-25T03:23:45.218Z,10.10
2022-10-25T03:26:47.342Z,10.95
2022-10-25T03:29:49.377Z,10.38
2022-10-25T03:32:51.311Z,9.20
2022-10-25T03:35:55.166Z,9.05
2022-10-25T03:38:57.240Z,9.85
2022-10-25T03:41:59.288Z,9.88
2022-10-25T03:45:01.343Z,10.20
2022-10-25T03:48:03.410Z,8.93
2022-10-25T03:51:05.547Z,9.10
2022-10-25T03:54:07.671Z,9.35
2022-10-25T03:57:10.096Z,9.68
2022-10-25T04:00:12.778Z,10.75
2022-10-25T04:03:14.824Z,9.63
2022-10-25T04:06:17.003Z,10.18
2022-10-25T04:09:19.269Z,11.13
2022-10-25T04:12:21.253Z,10.48
2022-10-25T04:15:24.196Z,10.00
2022-10-25T04:18:26.334Z,10.23
2022-10-25T04:21:28.402Z,10.77
2022-10-25T04:24:30.976Z,10.70
2022-10-25T04:27:33.058Z,10.52
2022-10-25T04:30:37.964Z,11.10
2022-10-25T04:33:43.047Z,12.15
2022-10-25T04:36:47.245Z,11.68
2022-10-25T04:39:49.233Z,10.77
2022-10-25T04:42:51.290Z,12.63
2022-10-25T04:45:53.969Z,11.73
2022-10-25T04:48:55.974Z,12.10
2022-10-25T04:51:58.482Z,11.55
2022-10-25T04:55:00.632Z,11.63
2022-10-25T04:58:03.042Z,11.95
2022-10-25T05:01:08.791Z,11.80
2022-10-25T05:04:10.869Z,11.98
2022-10-25T05:07:13.247Z,11.40
2022-10-25T05:10:15.808Z,13.13
2022-10-25T05:13:18.087Z,12.82
2022-10-25T05:16:23.829Z,11.70
2022-10-25T05:19:27.283Z,11.98
2022-10-25T05:22:31.338Z,13.25
2022-10-25T05:25:33.253Z,13.38
2022-10-25T05:28:36.924Z,12.40
2022-10-25T05:31:40.785Z,14.10
2022-10-25T05:34:43.864Z,13.63
2022-10-25T05:37:45.974Z,12.90
2022-10-25T05:44:06.351Z,12.82
2022-10-25T05:47:08.488Z,14.88
2022-10-25T05:50:10.593Z,15.63
2022-10-25T05:53:12.734Z,13.85
2022-10-25T05:56:15.846Z,14.75
2022-10-25T05:59:17.962Z,12.82
2022-10-25T06:02:20.152Z,11.82
2022-10-25T06:05:22.410Z,14.43
2022-10-25T06:08:24.518Z,14.45
2022-10-25T06:11:27.744Z,14.57
2022-10-25T06:14:29.734Z,14.63
2022-10-25T06:17:32.329Z,14.65
2022-10-25T06:20:34.514Z,15.32
2022-10-25T06:23:36.680Z,12.63
2022-10-25T06:26:38.739Z,10.30
2022-10-25T06:29:40.818Z,12.02
2022-10-25T06:32:44.231Z,17.30
2022-10-25T06:35:46.320Z,13.40
2022-10-25T06:38:49.445Z,12.32
2022-10-25T06:41:51.573Z,10.73
2022-10-25T06:44:53.989Z,11.05
2022-10-25T06:47:57.623Z,13.40
2022-10-25T06:51:09.285Z,10.32
2022-10-25T06:54:11.901Z,12.35
2022-10-25T06:57:14.730Z,11.88
2022-10-25T07:00:16.963Z,12.45
2022-10-25T07:03:19.073Z,10.65
2022-10-25T07:06:29.610Z,10.52
2022-10-25T07:09:31.647Z,11.45
2022-10-25T07:12:38.192Z,11.25
2022-10-25T07:15:42.174Z,9.65
2022-10-25T07:18:44.776Z,10.55
2022-10-25T07:21:46.860Z,12.38
2022-10-25T07:24:48.770Z,12.48
2022-10-25T07:27:50.969Z,14.45
2022-10-25T07:30:53.189Z,11.90
2022-10-25T07:33:58.477Z,11.10
2022-10-25T07:37:00.625Z,10.95
2022-10-25T07:40:03.982Z,12.65
2022-10-25T07:43:06.206Z,10.90
2022-10-25T07:46:08.193Z,11.65
2022-10-25T07:49:10.630Z,13.20
2022-10-25T07:52:14.071Z,11.95
2022-10-25T07:55:16.263Z,12.75
2022-10-25T07:58:18.666Z,12.15
2022-10-25T08:01:23.628Z,12.32
2022-10-25T08:04:26.097Z,11.30
2022-10-25T08:07:28.716Z,9.60
2022-10-25T08:10:31.193Z,11.15
2022-10-25T08:13:33.318Z,11.52
2022-10-25T08:16:35.336Z,12.27
2022-10-25T08:19:37.603Z,13.48
2022-10-25T08:22:39.739Z,11.13
2022-10-25T08:25:41.914Z,14.82
2022-10-25T08:28:43.986Z,10.73
2022-10-25T08:31:48.421Z,12.57
2022-10-25T08:34:50.500Z,10.60
2022-10-25T08:37:52.745Z,9.68
2022-10-25T08:41:03.668Z,11.85
2022-10-25T08:44:21.082Z,11.32
2022-10-25T08:47:35.293Z,11.43
2022-10-25T08:50:52.295Z,10.55
2022-10-25T08:53:58.379Z,12.27
2022-10-25T08:57:16.194Z,12.80
2022-10-25T09:00:22.655Z,12.10
2022-10-25T09:03:26.754Z,12.00
2022-10-25T09:06:36.158Z,11.05
2022-10-25T09:10:09.323Z,11.45
2022-10-25T09:13:15.958Z,11.02
2022-10-25T09:16:22.019Z,12.95
2022-10-25T09:19:35.778Z,10.48
2022-10-25T09:23:00.847Z,11.63
2022-10-25T09:26:24.147Z,12.07
2022-10-25T09:29:31.050Z,10.65
2022-10-25T09:32:45.722Z,10.45
2022-10-25T09:35:53.408Z,10.10
2022-10-25T09:39:00.113Z,10.60
2022-10-25T09:42:03.570Z,9.95
2022-10-25T09:45:16.434Z,10.73
2022-10-25T09:48:31.701Z,9.57
2022-10-25T09:51:35.168Z,11.25
2022-10-25T09:54:52.685Z,9.35
2022-10-25T09:57:55.820Z,8.00
2022-10-25T10:01:02.096Z,9.05
2022-10-25T10:04:19.932Z,9.30
2022-10-25T10:07:31.171Z,8.30
2022-10-25T10:10:35.734Z,10.48
2022-10-25T10:13:47.116Z,8.65
2022-10-25T10:16:53.076Z,11.50
2022-10-25T10:20:16.777Z,9.48
2022-10-25T10:23:20.183Z,8.40
2022-10-25T10:26:28.652Z,6.97
2022-10-25T10:32:36.241Z,10.13
2022-10-25T10:35:38.425Z,8.40
2022-10-25T10:38:40.467Z,8.30
2022-10-25T10:42:03.235Z,7.97
2022-10-25T10:45:08.498Z,9.40
2022-10-25T10:48:21.155Z,6.88
2022-10-25T10:51:44.918Z,7.72
2022-10-25T10:54:50.794Z,7.03
2022-10-25T10:57:54.493Z,7.40
2022-10-25T11:01:00.907Z,7.15
2022-10-25T11:04:03.552Z,7.07
2022-10-25T11:07:34.208Z,8.20
2022-10-25T11:10:37.784Z,9.25
2022-10-25T11:13:40.779Z,9.00
2022-10-25T11:17:15.028Z,7.75
2022-10-25T11:20:20.290Z,7.00
2022-10-25T11:23:29.215Z,7.25
2022-10-25T11:26:52.173Z,8.70
2022-10-25T11:30:06.362Z,7.82
2022-10-25T11:33:30.485Z,6.72
2022-10-25T11:37:00.907Z,9.50
2022-10-25T11:40:06.159Z,7.63
2022-10-25T11:43:29.684Z,8.85
2022-10-25T11:47:05.120Z,7.88
2022-10-25T11:50:19.152Z,8.65
2022-10-25T11:53:27.090Z,8.52
2022-10-25T11:56:52.355Z,9.00
2022-10-25T12:00:12.732Z,8.32
2022-10-25T12:03:45.784Z,7.85
2022-10-25T12:07:03.958Z,7.65
2022-10-25T12:10:35.619Z,9.15
2022-10-25T12:13:44.841Z,8.48
2022-10-25T12:16:48.496Z,10.02
2022-10-25T12:19:52.590Z,8.63
2022-10-25T12:23:01.489Z,9.43
2022-10-25T12:26:13.583Z,11.02
2022-10-25T12:29:24.462Z,10.35
2022-10-25T12:32:37.834Z,9.98
2022-10-25T12:35:55.239Z,10.57
2022-10-25T12:39:02.652Z,10.07
2022-10-25T12:42:20.792Z,10.30
2022-10-25T12:45:41.773Z,10.85
2022-10-25T12:48:49.780Z,10.02
2022-10-25T12:52:08.288Z,10.05
2022-10-25T12:55:57.884Z,10.10
2022-10-25T12:59:21.574Z,12.20
2022-10-25T13:02:49.257Z,10.30
2022-10-25T13:06:17.967Z,10.00
2022-10-25T13:09:26.941Z,11.32
2022-10-25T13:12:33.578Z,11.65
2022-10-25T13:15:47.500Z,10.32
2022-10-25T13:19:12.428Z,11.27
2022-10-25T13:22:45.567Z,11.13
2022-10-25T13:26:02.506Z,11.55
2022-10-25T13:29:45.059Z,11.90
2022-10-25T13:33:15.951Z,13.05
2022-10-25T13:36:59.787Z,13.57
2022-10-25T13:40:09.075Z,13.43
2022-10-25T13:44:00.907Z,14.65
2022-10-25T13:47:03.715Z,12.90
2022-10-25T13:50:42.853Z,11.40
2022-10-25T13:53:54.644Z,13.68
2022-10-25T14:01:04.232Z,12.88
2022-10-25T14:09:36.756Z,13.23
2022-10-25T14:12:45.290Z,13.20
2022-10-25T14:15:57.074Z,12.85
2022-10-25T14:19:12.610Z,14.10
2022-10-25T14:22:18.664Z,14.30
2022-10-25T14:25:33.462Z,14.02
2022-10-25T14:28:36.268Z,15.38
2022-10-25T14:31:38.434Z,15.73
2022-10-25T14:35:31.165Z,15.60
2022-10-25T14:38:57.891Z,15.32
2022-10-25T14:42:19.048Z,14.93
2022-10-25T14:45:27.473Z,14.23
2022-10-25T14:48:31.520Z,14.40
2022-10-25T14:51:42.346Z,16.38
2022-10-25T14:55:01.188Z,17.60
2022-10-25T14:58:04.538Z,16.52
2022-10-25T15:01:07.675Z,17.20
2022-10-25T15:04:14.225Z,16.73
2022-10-25T15:07:25.605Z,17.85
2022-10-25T15:10:31.344Z,16.98
2022-10-25T15:13:50.363Z,21.05
2022-10-25T15:20:29.303Z,19.30
2022-10-25T15:23:31.747Z,20.85
2022-10-25T15:26:54.584Z,19.20
2022-10-25T15:29:58.360Z,19.60
2022-10-25T15:33:05.451Z,15.93
2022-10-25T15:36:19.687Z,13.40
2022-10-25T15:39:29.870Z,13.40
2022-10-25T15:42:34.374Z,12.13
2022-10-25T15:45:38.153Z,12.55
2022-10-25T15:48:47.406Z,12.15
2022-10-25T15:51:50.551Z,10.95
2022-10-25T15:54:55.663Z,10.88
2022-10-25T15:58:05.861Z,11.50
2022-10-25T16:01:10.667Z,10.68
2022-10-25T16:04:18.012Z,10.48
2022-10-25T16:07:24.179Z,11.25
2022-10-25T16:10:32.775Z,11.25
2022-10-25T16:14:01.077Z,9.80
2022-10-25T16:17:23.111Z,10.07
2022-10-25T16:20:30.501Z,10.63
2022-10-25T16:23:34.114Z,10.05
2022-10-25T16:26:53.161Z,9.80
2022-10-25T16:29:55.590Z,10.30
2022-10-25T16:33:03.682Z,13.98
2022-10-25T16:36:06.985Z,11.73
2022-10-25T16:39:12.263Z,12.85
2022-10-25T16:42:48.530Z,9.93
2022-10-25T16:45:50.945Z,10.95
2022-10-25T16:48:57.080Z,10.68
2022-10-25T16:52:02.216Z,10.93
2022-10-25T16:55:06.290Z,10.57
2022-10-25T16:58:13.122Z,10.93
2022-10-25T17:01:34.155Z,15.70
2022-10-25T17:04:37.345Z,11.73
2022-10-25T17:08:04.162Z,10.75
2022-10-25T17:11:13.546Z,9.10
2022-10-25T17:14:15.760Z,10.18
2022-10-25T17:17:18.338Z,11.43
2022-10-25T17:20:20.375Z,8.75
2022-10-25T17:23:27.292Z,9.45
2022-10-25T17:26:32.608Z,10.60
2022-10-25T17:29:37.469Z,8.73
2022-10-25T17:32:42.691Z,9.27
2022-10-25T17:35:45.194Z,10.52
2022-10-25T17:38:48.275Z,10.50
2022-10-25T17:41:51.024Z,8.15
2022-10-25T17:44:53.258Z,9.45
2022-10-25T17:47:57.888Z,9.98
2022-10-25T17:51:08.529Z,8.50
2022-10-25T17:54:11.153Z,8.60
2022-10-25T17:57:17.256Z,11.73
2022-10-25T18:00:20.455Z,9.82
2022-10-25T18:03:22.518Z,9.60
2022-10-25T18:06:25.980Z,10.00
2022-10-25T18:09:30.746Z,9.85
2022-10-25T18:12:34.114Z,10.73
2022-10-25T18:15:39.264Z,11.95
2022-10-25T18:18:41.237Z,10.73
2022-10-25T18:21:44.337Z,10.95
2022-10-25T18:24:46.438Z,10.38
2022-10-25T18:27:48.529Z,11.43
2022-10-25T18:30:50.955Z,11.10
2022-10-25T18:33:59.289Z,9.63
2022-10-25T18:40:06.546Z,9.60
2022-10-25T18:43:11.648Z,9.85
2022-10-25T18:46:17.889Z,8.73
2022-10-25T18:49:20.192Z,8.73
2022-10-25T18:52:33.190Z,9.48
2022-10-25T18:55:35.327Z,9.57
2022-10-25T18:58:37.911Z,9.52
2022-10-25T19:01:40.150Z,9.63
2022-10-25T19:04:42.204Z,9.60
2022-10-25T19:07:47.560Z,9.68
2022-10-25T19:10:50.365Z,8.00
2022-10-25T19:13:54.958Z,7.97
2022-10-25T19:16:57.226Z,7.70
2022-10-25T19:20:01.987Z,6.82
2022-10-25T19:23:04.325Z,7.93
2022-10-25T19:26:09.146Z,8.10
2022-10-25T19:29:11.829Z,7.45
2022-10-25T19:32:14.203Z,6.35
2022-10-25T19:35:18.178Z,7.55
2022-10-25T19:38:20.119Z,6.63
2022-10-25T19:41:24.020Z,6.18
2022-10-25T19:44:26.153Z,7.47
2022-10-25T19:47:28.269Z,7.60
2022-10-25T19:50:30.550Z,7.50
2022-10-25T19:53:33.104Z,7.93
2022-10-25T19:56:37.348Z,7.63
2022-10-25T19:59:39.475Z,7.07
2022-10-25T20:02:41.716Z,8.25
2022-10-25T20:05:43.739Z,7.05
2022-10-25T20:08:47.644Z,6.88
2022-10-25T20:11:49.634Z,7.13
2022-10-25T20:14:51.679Z,6.40
2022-10-25T20:17:53.796Z,6.82
2022-10-25T20:21:06.473Z,5.55
2022-10-25T20:24:09.981Z,7.20
2022-10-25T20:27:12.341Z,7.30
2022-10-25T20:30:17.564Z,6.57
2022-10-25T20:33:21.488Z,6.90
2022-10-25T20:36:25.314Z,6.35
2022-10-25T20:39:27.295Z,6.78
2022-10-25T20:42:29.328Z,5.93
2022-10-25T20:45:32.076Z,6.45
2022-10-25T20:48:38.356Z,6.80
2022-10-25T20:51:40.449Z,6.78
2022-10-25T20:54:42.588Z,5.65
2022-10-25T20:57:46.508Z,6.10
2022-10-25T21:00:52.102Z,7.22
2022-10-25T21:03:54.315Z,6.22
2022-10-25T21:06:56.296Z,5.55
2022-10-25T21:09:59.353Z,5.60
2022-10-25T21:13:01.455Z,5.32
2022-10-25T21:16:08.502Z,5.40
2022-10-25T21:19:13.065Z,6.63
2022-10-25T21:22:16.382Z,6.55
2022-10-25T21:25:18.495Z,5.65
2022-10-25T21:28:20.585Z,6.25
2022-10-25T21:31:23.687Z,6.70
2022-10-25T21:34:25.824Z,5.40
2022-10-25T21:37:28.431Z,6.07
2022-10-25T21:40:31.726Z,5.00
2022-10-25T21:43:34.721Z,6.00
2022-10-25T21:46:36.762Z,6.50
2022-10-25T21:49:38.679Z,5.65
2022-10-25T21:52:40.697Z,5.75
2022-10-25T21:55:42.745Z,6.53
2022-10-25T21:58:47.315Z,5.43
2022-10-25T22:01:49.794Z,6.03
2022-10-25T22:04:51.876Z,5.68
2022-10-25T22:07:53.978Z,4.55
2022-10-25T22:11:01.453Z,5.20
2022-10-25T22:14:05.972Z,5.72
2022-10-25T22:17:09.189Z,5.75
2022-10-25T22:20:11.340Z,6.03
2022-10-25T22:23:13.451Z,5.78
2022-10-25T22:26:18.395Z,5.90
2022-10-25T22:29:20.649Z,5.63
2022-10-25T22:32:22.686Z,6.05
2022-10-25T22:35:25.061Z,4.22
2022-10-25T22:38:28.269Z,5.65
2022-10-25T22:41:31.323Z,4.72
2022-10-25T22:44:33.417Z,4.93
2022-10-25T22:47:35.499Z,5.97
2022-10-25T22:50:37.553Z,5.47
2022-10-25T22:53:40.884Z,5.68
2022-10-25T22:56:42.912Z,4.85
2022-10-25T22:59:44.984Z,5.75
2022-10-25T23:02:47.163Z,5.97
2022-10-25T23:05:56.956Z,6.05
2022-10-25T23:09:00.950Z,5.60
2022-10-25T23:12:03.083Z,5.88
2022-10-25T23:15:05.480Z,6.65
2022-10-25T23:18:07.556Z,5.78
2022-10-25T23:21:20.944Z,5.03
2022-10-25T23:24:23.023Z,5.45
2022-10-25T23:27:28.910Z,5.30
2022-10-25T23:30:33.713Z,7.10
2022-10-25T23:33:35.894Z,5.85
2022-10-25T23:36:38.188Z,5.88
2022-10-25T23:39:41.060Z,6.30
2022-10-25T23:42:45.999Z,6.10
2022-10-25T23:45:48.177Z,5.90
2022-10-25T23:48:50.089Z,6.65
2022-10-25T23:51:52.115Z,6.10
2022-10-25T23:54:54.160Z,6.32
2022-10-25T23:57:59.757Z,6.22
